16°C
Gosport, Hampshire, United Kingdom
Language:  English
Updated28/09/2021 17:45:00 
 

Nearby METAR Reports

 

EGHI - Southampton Wx Centre, United Kingdom
Distance from station: NW 15mi, 24km
Updated: 28-Sep-2021 17:20:00
Partly cloudy
Partly cloudy
 Wind from S
Wind: S 16 mph , 26 km/h, Gust: 30 mph , 48 km/h
Temperature: 16°C
Dew Point: 12°C
Humidity: 77%
Barometer: 1012 hPa
Clouds: Partly cloudy
Visibility: 6 miles , 10 km
Cloud details: Few Clouds 762 m
Partly cloudy 1067 m
2021/09/28 16:20 EGHI 281620Z 18014G26KT 140V220 9999 FEW025 SCT035 16/12 Q1012
EGHH - Bournemouth Airport, United Kingdom
Distance from station: W 30mi, 49km
Updated: 28-Sep-2021 17:20:00
Light rain, Partly cloudy
Light rain, Partly cloudy
 Wind from SSW
Wind: SSW 20 mph , 31 km/h, Gust: 37 mph , 59 km/h
Temperature: 16°C
Dew Point: 13°C
Humidity: 83%
Barometer: 1011 hPa
Summary: Light rain
Clouds: Partly cloudy
Visibility: 6 miles , 10 km
Cloud details: Few Clouds 549 m
Partly cloudy 975 m
2021/09/28 16:20 EGHH 281620Z 20017G32KT 9999 -RA FEW018 SCT032 16/13 Q1011
EGVP - Middle Wallop Airfield, United Kingdom
Distance from station: NW 31mi, 49km
Updated: 28-Sep-2021 17:31:00
Rain showers, Overcast
Rain showers, Overcast
 Wind from S
Wind: S 14 mph , 22 km/h
Temperature: 14°C
Dew Point: 13°C
Humidity: 94%
Barometer: 1011 hPa
Summary: Rain Showers
Clouds: Overcast
Visibility: 6 miles , 10 km
Cloud details: Mostly cloudy 305 m
Overcast 1219 m
2021/09/28 16:31 EGVP 281631Z 19012KT 9999 SHRA BKN010 OVC040 14/13 Q1011 TEMPO 4000 +SHRA RMK GRN TEMPO GRN
 
EGVO - RAF Odiham, United Kingdom
Distance from station: NNE 32mi, 52km
Updated: 28-Sep-2021 17:20:00
Light rain, Showers, Mostly cloudy
Light rain, Showers, Mostly cloudy
 Wind from S
Wind: S 16 mph , 26 km/h
Temperature: 14°C
Dew Point: 11°C
Humidity: 82%
Barometer: 1012 hPa
Summary: Light rain, Showers
Clouds: Mostly cloudy
Visibility: 6 miles , 10 km
Cloud details: Few Clouds 610 m
Mostly cloudy 1524 m
2021/09/28 16:20 EGVO 281620Z 19014KT 9999 -SHRA FEW020 BKN050 14/11 Q1012 TEMPO 6000 SHRA BKN020CB RMK BLU TEMPO WHT
EGKA - Shoreham Airport, United Kingdom
Distance from station: E 37mi, 59km
Updated: 28-Sep-2021 17:20:00
Light rain, Showers, Mostly cloudy
Light rain, Showers, Mostly cloudy
 Wind from SSW
Wind: SSW 16 mph , 26 km/h
Temperature: 15°C
Dew Point: 13°C
Humidity: 88%
Barometer: 1014 hPa
Summary: Light rain, Showers
Clouds: Mostly cloudy
Visibility: 6 miles , 9 km
Cloud details: Few Clouds 396 m
Mostly cloudy 792 m
2021/09/28 16:20 EGKA 281620Z 21014KT 9000 -SHRA FEW013 BKN026 15/13 Q1014
EGDM - Boscombe Down, United Kingdom
Distance from station: NW 38mi, 61km
Updated: 28-Sep-2021 16:50:00
Mostly cloudy
Mostly cloudy
 Wind from S
Wind: S 17 mph , 28 km/h
Temperature: 14°C
Dew Point: 12°C
Humidity: 88%
Barometer: 1011 hPa
Clouds: Mostly cloudy
Visibility: 6 miles , 10 km
Cloud details: Few Clouds 366 m
Partly cloudy 518 m
Mostly cloudy 1524 m
2021/09/28 15:50 EGDM 281550Z 18015KT 9999 FEW012 SCT017 BKN050 14/12 Q1011 RMK WHT
 
EGLF - Farnborough, United Kingdom
Distance from station: NNE 38mi, 61km
Updated: 28-Sep-2021 17:20:00
Light rain, Showers, Few clouds
Light rain, Showers, Few clouds
 Wind from S
Wind: S 15 mph , 24 km/h
Temperature: 15°C
Dew Point: 12°C
Humidity: 82%
Barometer: 1012 hPa
Summary: Light rain, Showers
Clouds: Few Clouds
Visibility: 6 miles , 10 km
Cloud details: Few Clouds 610 m
2021/09/28 16:20 EGLF 281620Z 19013KT 9999 -SHRA FEW020CB 15/12 Q1012
EGKK - Gatwick Airport, United Kingdom
Distance from station: ENE 49mi, 78km
Updated: 28-Sep-2021 17:20:00
Nearby showers, Partly cloudy
Nearby showers, Partly cloudy
 Wind from S
Wind: S 8 mph , 13 km/h
Temperature: 15°C
Dew Point: 13°C
Humidity: 88%
Barometer: 1014 hPa
Summary: Nearby Showers
Clouds: Partly cloudy
Visibility: 6 miles , 10 km
Cloud details: Few Clouds 427 m
Partly cloudy 640 m
2021/09/28 16:20 EGKK 281620Z 18007KT 150V230 9999 VCSH FEW014 SCT021 15/13 Q1014
EGLL - Heathrow Airport, United Kingdom
Distance from station: NNE 57mi, 91km
Updated: 28-Sep-2021 17:20:00
Thunderstorm
Thunderstorm
 Wind from S
Wind: S 15 mph , 24 km/h
Temperature: 16°C
Dew Point: 11°C
Humidity: 72%
Barometer: 1013 hPa
Clouds: Thunderstorm
Visibility: 6 miles , 10 km
2021/09/28 16:20 EGLL 281620Z AUTO 19013KT 170V230 9999 //////CB 16/11 Q1013
 
EGUB - RAF Benson, United Kingdom
Distance from station: N 58mi, 93km
Updated: 28-Sep-2021 17:20:00
Mostly cloudy
Mostly cloudy
 Wind from S
Wind: S 20 mph , 31 km/h
Temperature: 14°C
Dew Point: 11°C
Humidity: 82%
Barometer: 1011 hPa
Clouds: Mostly cloudy
Visibility: 6 miles , 10 km
Cloud details: Few Clouds 671 m
Mostly cloudy 1524 m
2021/09/28 16:20 EGUB 281620Z 18017KT 9999 FEW022 BKN050 14/11 Q1011 TEMPO 5000 SHRA BKN018CB RMK BLU TEMPO WHT
EGWU - RAF Northolt, United Kingdom
Distance from station: NNE 62mi, 99km
Updated: 28-Sep-2021 17:23:00
Mostly cloudy
Mostly cloudy
 Wind from SSW
Wind: SSW 15 mph , 24 km/h
Temperature: 16°C
Dew Point: 11°C
Humidity: 72%
Barometer: 1012 hPa
Clouds: Mostly cloudy
Visibility: 6 miles , 10 km
Cloud details: Few Clouds 671 m
Mostly cloudy 2134 m
Mostly cloudy 3658 m
2021/09/28 16:23 EGWU 281623Z 20013KT 9999 FEW022 BKN070 BKN120 16/11 Q1012 NOSIG RMK BLU BLU
EGKB - Biggin Hill Airport, United Kingdom
Distance from station: NE 62mi, 100km
Updated: 28-Sep-2021 17:20:00
Light rain, Showers, Partly cloudy
Light rain, Showers, Partly cloudy
 Wind from S
Wind: S 18 mph , 30 km/h
Temperature: 14°C
Dew Point: 12°C
Humidity: 88%
Barometer: 1014 hPa
Summary: Light rain, Showers
Clouds: Partly cloudy
Visibility: 6 miles , 10 km
Cloud details: Partly cloudy 549 m
2021/09/28 16:20 EGKB 281620Z 19016KT 9999 -SHRA SCT018 14/12 Q1014
 
EGDY - RNAS Yeovilton, United Kingdom
Distance from station: WNW 66mi, 107km
Updated: 28-Sep-2021 17:20:00
Rain, Overcast
Rain, Overcast
 Wind from SW
Wind: SW 14 mph , 22 km/h
Temperature: 14°C
Dew Point: 13°C
Humidity: 94%
Barometer: 1010 hPa
Summary: Rain
Clouds: Overcast
Visibility: 2 miles , 4 km
Cloud details: Few Clouds 366 m
Partly cloudy 610 m
Overcast 1524 m
2021/09/28 16:20 EGDY 281620Z 22012KT 3500 RA FEW012 SCT020 OVC050 14/13 Q1010 TEMPO 4000 SHRA SCT008 SCT015CB RMK YLO1 TEMPO GRN
EGUO - Colerne Airfield, United Kingdom
Distance from station: NW 67mi, 108km
Updated: 14-Feb-2019 22:50:00
NOT Current
Clear
Clear
 Wind from ENE
Wind: ENE 1 mph , 2 km/h
Temperature: 1°C
Dew Point: 0°C
Humidity: 93%
Barometer: 1029 hPa
Summary: Clear
Visibility: greater than 7 miles , 10 km
2019/02/14 22:50 EGUO 142250Z 06001KT CAVOK 01/00 Q1029 BLU NOSIG
EGVA - RAF Fairford, United Kingdom
Distance from station: NNW 67mi, 108km
Updated: 28-Sep-2021 17:21:00
Light rain, Mist, Overcast
Light rain, Mist, Overcast
 Wind from SSW
Wind: SSW 13 mph , 20 km/h
Temperature: 14°C
Dew Point: 13°C
Humidity: 94%
Barometer: 1009.5 hPa
Summary: Light rain, Mist
Clouds: Overcast
Visibility: 6 miles , 9 km
Cloud details: Partly cloudy 518 m
Mostly cloudy 701 m
Overcast 1189 m
2021/09/28 16:21 EGVA 281621Z AUTO 20011KT 9000 -RA BR SCT017 BKN023 OVC039 14/13 A2981 RMK AO2 CIG 023V039 BKN V SCT SLP098 $
 
EGVN - RAF Brize Norton, United Kingdom
Distance from station: NNW 71mi, 114km
Updated: 28-Sep-2021 17:27:00
Light rain, Mostly cloudy
Light rain, Mostly cloudy
 Wind from S
Wind: S 13 mph , 20 km/h
Temperature: 14°C
Dew Point: 12°C
Humidity: 88%
Barometer: 1010 hPa
Summary: Light rain
Clouds: Mostly cloudy
Visibility: 6 miles , 10 km
Cloud details: Few Clouds 457 m
Partly cloudy 1219 m
Mostly cloudy 2134 m
2021/09/28 16:27 EGVN 281627Z 19011KT 9999 -RA FEW015 SCT040 BKN070 14/12 Q1010 TEMPO 4000 +RA SCT012 BKN015 RMK BLU TEMPO GRN
EGLC - London City Airport, United Kingdom
Distance from station: NE 71mi, 115km
Updated: 28-Sep-2021 17:20:00
Light rain, Thunderstorm
Light rain, Thunderstorm
 Wind from S
Wind: S 14 mph , 22 km/h, Gust: 28 mph , 44 km/h
Temperature: 17°C
Dew Point: 11°C
Humidity: 68%
Barometer: 1014 hPa
Summary: Light rain
Clouds: Thunderstorm
Visibility: 6 miles , 10 km
Cloud details: Few Clouds 1158 m
2021/09/28 16:20 EGLC 281620Z AUTO 19012G24KT 150V230 9999 -RA FEW038/// //////CB 17/11 Q1014
EGGD - Bristol Airport, United Kingdom
Distance from station: WNW 80mi, 128km
Updated: 28-Sep-2021 17:20:00
Rain, Thunderstorm
Rain, Thunderstorm
 Wind from SW
Wind: SW 5 mph , 7 km/h
Temperature: 12°C
Dew Point: 11°C
Humidity: 94%
Barometer: 1010 hPa
Summary: Rain
Clouds: Thunderstorm
Visibility: 3 miles , 5 km
Cloud details: Mostly cloudy 122 m
Mostly cloudy 427 m
2021/09/28 16:20 EGGD 281620Z AUTO 23004KT 200V260 4800 RA BKN004/// BKN014/// //////CB 12/11 Q1010
 
LFRC - Cherbourg-Maupertus Airport, France
Distance from station: S 81mi, 130km
Updated: 28-Sep-2021 17:30:00
Partly cloudy
Partly cloudy
 Wind from S
Wind: S 14 mph , 22 km/h
Temperature: 15°C
Dew Point: 12°C
Humidity: 82%
Barometer: 1014 hPa
Clouds: Partly cloudy
Visibility: 6 miles , 10 km
Cloud details: Few Clouds 792 m
Partly cloudy 1158 m
2021/09/28 16:30 LFRC 281630Z AUTO 19012KT 9999 FEW026 SCT038 15/12 Q1014 TEMPO 3000 SHRA BKN015CB BECMG 20015G25KT
EGGW - Luton Airport, United Kingdom
Distance from station: NNE 82mi, 132km
Updated: 28-Sep-2021 17:20:00
Light rain, Showers, Overcast
Light rain, Showers, Overcast
 Wind from S
Wind: S 15 mph , 24 km/h
Temperature: 15°C
Dew Point: 11°C
Humidity: 77%
Barometer: 1012 hPa
Summary: Light rain, Showers
Clouds: Overcast
Visibility: 6 miles , 10 km
Cloud details: Mostly cloudy 671 m
Mostly cloudy 884 m
Overcast 1128 m
2021/09/28 16:20 EGGW 281620Z 19013KT 160V230 9999 -SHRA BKN022CB BKN029 OVC037 15/11 Q1012